createdAt,value
2023-04-12T00:00:40.423Z,10.56
2023-04-12T00:02:39.086Z,10.56
2023-04-12T00:03:39.638Z,10.56
2023-04-12T00:04:39.805Z,10.56
2023-04-12T00:05:39.487Z,10.56
2023-04-12T00:06:38.353Z,10.56
2023-04-12T00:07:38.866Z,10.56
2023-04-12T00:08:38.793Z,10.56
2023-04-12T00:09:38.405Z,10.56
2023-04-12T00:10:38.227Z,10.56
2023-04-12T00:11:38.041Z,10.56
2023-04-12T00:12:38.049Z,10.56
2023-04-12T00:13:38.302Z,10.56
2023-04-12T00:14:38.790Z,10.56
2023-04-12T00:15:39.712Z,10.56
2023-04-12T00:16:39.085Z,10.56
2023-04-12T00:17:38.065Z,10.56
2023-04-12T00:18:38.247Z,10.56
2023-04-12T00:19:38.218Z,10.56
2023-04-12T00:20:37.614Z,10.56
2023-04-12T00:21:38.068Z,10.56
2023-04-12T00:22:38.124Z,10.56
2023-04-12T00:23:37.962Z,10.56
2023-04-12T00:24:38.826Z,10.56
2023-04-12T00:25:38.450Z,10.56
2023-04-12T00:26:38.197Z,10.56
2023-04-12T00:27:38.210Z,10.56
2023-04-12T00:28:37.722Z,10.55
2023-04-12T00:29:38.181Z,10.55
2023-04-12T00:30:39.438Z,10.56
2023-04-12T00:31:38.384Z,10.56
2023-04-12T00:32:38.144Z,10.56
2023-04-12T00:33:38.098Z,10.54
2023-04-12T00:34:38.232Z,10.53
2023-04-12T00:35:38.170Z,10.53
2023-04-12T00:36:38.008Z,10.5
2023-04-12T00:37:38.245Z,10.5
2023-04-12T00:38:37.927Z,10.5
2023-04-12T00:39:43.559Z,10.5
2023-04-12T00:40:38.168Z,10.5
2023-04-12T00:41:38.209Z,10.5
2023-04-12T00:42:38.087Z,10.5
2023-04-12T00:43:38.314Z,10.5
2023-04-12T00:44:38.310Z,10.5
2023-04-12T00:45:43.556Z,10.5
2023-04-12T00:46:38.396Z,10.5
2023-04-12T00:47:38.138Z,10.5
2023-04-12T00:48:38.086Z,10.5
2023-04-12T00:49:38.255Z,10.5
2023-04-12T00:50:38.483Z,10.5
2023-04-12T00:51:38.300Z,10.5
2023-04-12T00:52:38.431Z,10.5
2023-04-12T00:53:38.485Z,10.5
2023-04-12T00:54:38.869Z,10.5
2023-04-12T00:55:39.359Z,10.5
2023-04-12T00:56:38.880Z,10.5
2023-04-12T00:57:39.243Z,10.5
2023-04-12T00:58:38.065Z,10.5
2023-04-12T00:59:38.017Z,10.5
2023-04-12T01:00:39.300Z,10.47
2023-04-12T01:01:38.091Z,10.48
2023-04-12T01:02:38.318Z,10.47
2023-04-12T01:03:39.405Z,10.45
2023-04-12T01:04:38.405Z,10.44
2023-04-12T01:05:38.697Z,10.44
2023-04-12T01:06:39.233Z,10.43
2023-04-12T01:07:38.388Z,10.43
2023-04-12T01:08:38.203Z,10.43
2023-04-12T01:09:38.189Z,10.43
2023-04-12T01:10:38.254Z,10.43
2023-04-12T01:11:38.149Z,10.43
2023-04-12T01:12:38.032Z,10.43
2023-04-12T01:13:38.185Z,10.43
2023-04-12T01:14:38.310Z,10.43
2023-04-12T01:15:38.492Z,10.43
2023-04-12T01:16:38.418Z,10.43
2023-04-12T01:17:38.289Z,10.43
2023-04-12T01:18:38.113Z,10.43
2023-04-12T01:19:38.442Z,10.43
2023-04-12T01:20:38.088Z,10.43
2023-04-12T01:21:38.020Z,10.43
2023-04-12T01:22:37.772Z,10.43
2023-04-12T01:23:38.404Z,10.43
2023-04-12T01:24:38.238Z,10.43
2023-04-12T01:25:38.191Z,10.43
2023-04-12T01:26:38.058Z,10.43
2023-04-12T01:27:38.335Z,10.42
2023-04-12T01:28:38.133Z,10.43
2023-04-12T01:29:38.246Z,10.43
2023-04-12T01:30:38.601Z,10.43
2023-04-12T01:31:37.915Z,10.43
2023-04-12T01:32:38.298Z,10.41
2023-04-12T01:33:37.793Z,10.40
2023-04-12T01:34:38.478Z,10.38
2023-04-12T01:35:38.403Z,10.37
2023-04-12T01:36:38.360Z,10.37
2023-04-12T01:37:38.050Z,10.38
2023-04-12T01:38:37.950Z,10.37
2023-04-12T01:39:38.776Z,10.37
2023-04-12T01:40:38.526Z,10.37
2023-04-12T01:41:38.663Z,10.37
2023-04-12T01:42:37.978Z,10.37
2023-04-12T01:43:37.340Z,10.37
2023-04-12T01:44:38.589Z,10.37
2023-04-12T01:45:39.423Z,10.37
2023-04-12T01:46:38.395Z,10.37
2023-04-12T01:47:38.461Z,10.37
2023-04-12T01:48:38.098Z,10.37
2023-04-12T01:49:37.948Z,10.37
2023-04-12T01:50:38.401Z,10.37
2023-04-12T01:51:38.068Z,10.37
2023-04-12T01:52:38.189Z,10.37
2023-04-12T01:53:37.796Z,10.37
2023-04-12T01:54:38.409Z,10.37
2023-04-12T01:55:38.122Z,10.37
2023-04-12T01:56:40.079Z,10.37
2023-04-12T01:57:37.896Z,10.37
2023-04-12T01:58:38.446Z,10.37
2023-04-12T01:59:37.996Z,10.37
2023-04-12T02:00:38.519Z,10.37
2023-04-12T02:01:38.107Z,10.36
2023-04-12T02:02:38.256Z,10.37
2023-04-12T02:03:38.709Z,10.37
2023-04-12T02:04:38.771Z,10.37
2023-04-12T02:05:38.522Z,10.34
2023-04-12T02:06:38.081Z,10.32
2023-04-12T02:07:38.378Z,10.34
2023-04-12T02:08:38.209Z,10.31
2023-04-12T02:09:38.515Z,10.33
2023-04-12T02:10:38.097Z,10.31
2023-04-12T02:11:38.067Z,10.31
2023-04-12T02:12:38.383Z,10.31
2023-04-12T02:13:38.059Z,10.32
2023-04-12T02:14:38.315Z,10.33
2023-04-12T02:15:38.601Z,10.31
2023-04-12T02:16:38.261Z,10.33
2023-04-12T02:17:38.366Z,10.36
2023-04-12T02:18:38.703Z,10.34
2023-04-12T02:19:38.206Z,10.33
2023-04-12T02:20:38.648Z,10.32
2023-04-12T02:21:38.616Z,10.32
2023-04-12T02:22:38.319Z,10.31
2023-04-12T02:23:38.357Z,10.31
2023-04-12T02:24:37.961Z,10.31
2023-04-12T02:25:38.355Z,10.31
2023-04-12T02:26:38.578Z,10.31
2023-04-12T02:27:38.541Z,10.31
2023-04-12T02:28:38.305Z,10.31
2023-04-12T02:29:38.238Z,10.31
2023-04-12T02:30:38.606Z,10.31
2023-04-12T02:31:38.406Z,10.31
2023-04-12T02:32:38.374Z,10.31
2023-04-12T02:33:38.264Z,10.31
2023-04-12T02:34:38.673Z,10.31
2023-04-12T02:35:38.603Z,10.31
2023-04-12T02:36:38.330Z,10.31
2023-04-12T02:37:38.079Z,10.31
2023-04-12T02:38:38.348Z,10.31
2023-04-12T02:39:37.938Z,10.31
2023-04-12T02:40:39.314Z,10.31
2023-04-12T02:42:37.930Z,10.31
2023-04-12T02:43:38.123Z,10.31
2023-04-12T02:44:38.276Z,10.31
2023-04-12T02:45:38.448Z,10.31
2023-04-12T02:46:38.360Z,10.31
2023-04-12T02:47:38.401Z,10.31
2023-04-12T02:48:38.264Z,10.31
2023-04-12T02:49:38.227Z,10.31
2023-04-12T02:50:38.449Z,10.31
2023-04-12T02:51:38.180Z,10.31
2023-04-12T02:52:38.384Z,10.31
2023-04-12T02:53:38.373Z,10.31
2023-04-12T02:54:38.508Z,10.31
2023-04-12T02:55:39.007Z,10.31
2023-04-12T02:56:38.342Z,10.31
2023-04-12T02:57:37.853Z,10.31
2023-04-12T02:58:38.433Z,10.31
2023-04-12T02:59:38.021Z,10.30
2023-04-12T03:00:39.484Z,10.31
2023-04-12T03:01:38.685Z,10.31
2023-04-12T03:02:38.884Z,10.31
2023-04-12T03:03:38.665Z,10.31
2023-04-12T03:04:38.826Z,10.31
2023-04-12T03:05:38.937Z,10.30
2023-04-12T03:06:38.285Z,10.30
2023-04-12T03:07:38.278Z,10.30
2023-04-12T03:08:38.028Z,10.30
2023-04-12T03:09:38.462Z,10.30
2023-04-12T03:10:38.609Z,10.31
2023-04-12T03:11:38.766Z,10.30
2023-04-12T03:12:38.726Z,10.28
2023-04-12T03:13:38.494Z,10.31
2023-04-12T03:14:38.605Z,10.31
2023-04-12T03:15:40.134Z,10.30
2023-04-12T03:16:39.323Z,10.30
2023-04-12T03:17:38.211Z,10.28
2023-04-12T03:18:45.919Z,10.31
2023-04-12T03:19:38.309Z,10.29
2023-04-12T03:20:38.464Z,10.30
2023-04-12T03:21:38.380Z,10.27
2023-04-12T03:22:38.143Z,10.30
2023-04-12T03:23:38.079Z,10.31
2023-04-12T03:24:37.740Z,10.29
2023-04-12T03:25:38.344Z,10.31
2023-04-12T03:26:38.586Z,10.27
2023-04-12T03:27:38.299Z,10.30
2023-04-12T03:28:38.476Z,10.28
2023-04-12T03:29:38.411Z,10.30
2023-04-12T03:30:39.069Z,10.30
2023-04-12T03:31:38.572Z,10.29
2023-04-12T03:32:38.861Z,10.30
2023-04-12T03:33:38.678Z,10.30
2023-04-12T03:34:38.892Z,10.27
2023-04-12T03:35:38.727Z,10.29
2023-04-12T03:36:38.852Z,10.25
2023-04-12T03:37:38.588Z,10.27
2023-04-12T03:38:38.610Z,10.30
2023-04-12T03:39:38.669Z,10.26
2023-04-12T03:40:38.860Z,10.25
2023-04-12T03:41:38.977Z,10.29
2023-04-12T03:42:48.803Z,10.26
2023-04-12T03:43:38.135Z,10.27
2023-04-12T03:44:38.535Z,10.25
2023-04-12T03:45:39.347Z,10.27
2023-04-12T03:46:43.409Z,10.26
2023-04-12T03:47:38.437Z,10.25
2023-04-12T03:48:38.288Z,10.27
2023-04-12T03:49:38.468Z,10.26
2023-04-12T03:50:38.544Z,10.25
2023-04-12T03:51:38.545Z,10.26
2023-04-12T03:52:38.244Z,10.25
2023-04-12T03:53:38.244Z,10.26
2023-04-12T03:54:38.065Z,10.25
2023-04-12T03:55:38.510Z,10.25
2023-04-12T03:56:38.475Z,10.25
2023-04-12T03:57:38.169Z,10.25
2023-04-12T03:58:38.620Z,10.25
2023-04-12T03:59:38.392Z,10.25
2023-04-12T04:00:39.144Z,10.25
2023-04-12T04:01:38.186Z,10.25
2023-04-12T04:02:38.786Z,10.25
2023-04-12T04:03:39.924Z,10.26
2023-04-12T04:04:39.462Z,10.25
2023-04-12T04:05:38.445Z,10.28
2023-04-12T04:06:38.971Z,10.26
2023-04-12T04:07:38.488Z,10.25
2023-04-12T04:08:38.867Z,10.25
2023-04-12T04:09:38.605Z,10.27
2023-04-12T04:10:39.163Z,10.30
2023-04-12T04:11:38.591Z,10.30
2023-04-12T04:12:38.658Z,10.30
2023-04-12T04:13:38.471Z,10.27
2023-04-12T04:14:38.043Z,10.29
2023-04-12T04:15:38.183Z,10.29
2023-04-12T04:16:38.216Z,10.27
2023-04-12T04:17:38.423Z,10.26
2023-04-12T04:18:38.532Z,10.26
2023-04-12T04:19:38.437Z,10.29
2023-04-12T04:20:39.505Z,10.27
2023-04-12T04:21:38.285Z,10.27
2023-04-12T04:22:38.392Z,10.26
2023-04-12T04:23:39.316Z,10.28
2023-04-12T04:24:38.683Z,10.26
2023-04-12T04:25:38.857Z,10.27
2023-04-12T04:26:38.669Z,10.26
2023-04-12T04:27:39.094Z,10.26
2023-04-12T04:28:38.879Z,10.25
2023-04-12T04:29:38.981Z,10.25
2023-04-12T04:30:38.829Z,10.25
2023-04-12T04:31:38.788Z,10.25
2023-04-12T04:32:38.901Z,10.25
2023-04-12T04:33:38.972Z,10.25
2023-04-12T04:34:38.561Z,10.25
2023-04-12T04:35:39.227Z,10.25
2023-04-12T04:36:38.473Z,10.25
2023-04-12T04:37:38.704Z,10.29
2023-04-12T04:38:39.013Z,10.29
2023-04-12T04:39:38.723Z,10.28
2023-04-12T04:40:39.549Z,10.25
2023-04-12T04:41:39.468Z,10.26
2023-04-12T04:42:39.004Z,10.26
2023-04-12T04:43:38.704Z,10.25
2023-04-12T04:44:39.238Z,10.27
2023-04-12T04:45:39.181Z,10.28
2023-04-12T04:46:39.105Z,10.28
2023-04-12T04:47:38.653Z,10.27
2023-04-12T04:48:39.402Z,10.26
2023-04-12T04:49:38.844Z,10.27
2023-04-12T04:50:39.063Z,10.25
2023-04-12T04:51:38.584Z,10.25
2023-04-12T04:52:38.960Z,10.26
2023-04-12T04:53:39.055Z,10.26
2023-04-12T04:54:38.130Z,10.25
2023-04-12T04:55:39.210Z,10.27
2023-04-12T04:56:38.998Z,10.28
2023-04-12T04:57:38.810Z,10.26
2023-04-12T04:58:39.014Z,10.27
2023-04-12T04:59:38.467Z,10.26
2023-04-12T05:00:39.966Z,10.25
2023-04-12T05:01:39.441Z,10.26
2023-04-12T05:02:39.246Z,10.25
2023-04-12T05:03:39.025Z,10.25
2023-04-12T05:04:38.667Z,10.27
2023-04-12T05:05:39.772Z,10.25
2023-04-12T05:06:39.082Z,10.25
2023-04-12T05:07:38.291Z,10.26
2023-04-12T05:08:38.753Z,10.26
2023-04-12T05:09:39.301Z,10.26
2023-04-12T05:10:39.260Z,10.25
2023-04-12T05:11:39.090Z,10.25
2023-04-12T05:12:38.616Z,10.26
2023-04-12T05:13:39.304Z,10.26
2023-04-12T05:14:47.308Z,10.25
2023-04-12T05:15:39.451Z,10.28
2023-04-12T05:16:39.070Z,10.27
2023-04-12T05:17:39.108Z,10.25
2023-04-12T05:18:38.813Z,10.26
2023-04-12T05:19:39.257Z,10.26
2023-04-12T05:20:39.051Z,10.27
2023-04-12T05:21:39.589Z,8.5
2023-04-12T05:22:39.138Z,10.26
2023-04-12T05:23:39.155Z,10.25
2023-04-12T05:24:38.680Z,10.27
2023-04-12T05:25:39.488Z,10.26
2023-04-12T05:26:39.166Z,10.25
2023-04-12T05:27:38.769Z,10.25
2023-04-12T05:28:39.167Z,10.27
2023-04-12T05:29:43.709Z,10.25
2023-04-12T05:30:39.570Z,10.27
2023-04-12T05:31:38.696Z,10.27
2023-04-12T05:32:39.287Z,10.29
2023-04-12T05:33:38.622Z,10.26
2023-04-12T05:34:39.025Z,10.26
2023-04-12T05:35:38.466Z,10.27
2023-04-12T05:36:39.072Z,10.25
2023-04-12T05:37:38.566Z,10.27
2023-04-12T05:38:38.850Z,10.27
2023-04-12T05:39:38.928Z,10.25
2023-04-12T05:40:39.193Z,10.26
2023-04-12T05:41:39.621Z,10.27
2023-04-12T05:42:39.012Z,10.26
2023-04-12T05:43:38.858Z,10.26
2023-04-12T05:44:38.840Z,10.28
2023-04-12T05:45:39.133Z,10.26
2023-04-12T05:46:38.748Z,10.29
2023-04-12T05:47:38.863Z,10.26
2023-04-12T05:48:38.914Z,10.25
2023-04-12T05:49:39.069Z,10.25
2023-04-12T05:50:38.607Z,10.28
2023-04-12T05:51:55.559Z,10.25
2023-04-12T05:52:39.143Z,10.25
2023-04-12T05:53:38.905Z,10.25
2023-04-12T05:54:38.997Z,10.25
2023-04-12T05:55:38.395Z,10.25
2023-04-12T05:56:38.854Z,10.25
2023-04-12T05:57:38.824Z,10.25
2023-04-12T05:58:39.060Z,10.25
2023-04-12T05:59:38.858Z,10.25
2023-04-12T06:00:40.230Z,10.25
2023-04-12T06:01:52.743Z,10.25
2023-04-12T06:02:39.860Z,10.25
2023-04-12T06:03:40.158Z,10.25
2023-04-12T06:04:51.023Z,10.25
2023-04-12T06:05:39.272Z,10.25
2023-04-12T06:06:39.036Z,10.25
2023-04-12T06:07:38.912Z,10.25
2023-04-12T06:08:39.673Z,10.25
2023-04-12T06:09:39.535Z,10.25
2023-04-12T06:10:39.180Z,10.25
2023-04-12T06:11:44.702Z,10.25
2023-04-12T06:12:38.926Z,10.25
2023-04-12T06:13:39.290Z,10.25
2023-04-12T06:14:39.384Z,10.25
2023-04-12T06:15:39.261Z,10.25
2023-04-12T06:16:41.299Z,10.25
2023-04-12T06:17:39.550Z,10.25
2023-04-12T06:18:39.240Z,10.25
2023-04-12T06:19:39.357Z,10.25
2023-04-12T06:20:39.111Z,10.25
2023-04-12T06:21:38.990Z,10.25
2023-04-12T06:22:38.715Z,10.25
2023-04-12T06:23:39.440Z,10.25
2023-04-12T06:24:38.389Z,10.25
2023-04-12T06:25:39.561Z,10.25
2023-04-12T06:26:40.370Z,10.25
2023-04-12T06:27:39.162Z,10.25
2023-04-12T06:28:38.982Z,10.25
2023-04-12T06:29:38.617Z,10.25
2023-04-12T06:30:39.260Z,10.25
2023-04-12T06:31:38.949Z,10.25
2023-04-12T06:32:39.337Z,10.25
2023-04-12T06:33:39.067Z,10.25
2023-04-12T06:34:39.280Z,10.25
2023-04-12T06:35:39.232Z,10.25
2023-04-12T06:36:39.261Z,10.25
2023-04-12T06:37:39.103Z,10.28
2023-04-12T06:38:38.865Z,10.29
2023-04-12T06:39:39.303Z,10.26
2023-04-12T06:40:39.488Z,10.25
2023-04-12T06:41:42.116Z,10.25
2023-04-12T06:42:39.148Z,10.25
2023-04-12T06:43:38.918Z,10.27
2023-04-12T06:44:38.755Z,10.29
2023-04-12T06:45:40.142Z,10.26
2023-04-12T06:46:39.102Z,10.30
2023-04-12T06:47:39.169Z,10.28
2023-04-12T06:48:38.864Z,10.31
2023-04-12T06:49:39.303Z,10.29
2023-04-12T06:50:39.118Z,10.31
2023-04-12T06:51:39.510Z,10.30
2023-04-12T06:52:39.024Z,10.31
2023-04-12T06:53:38.669Z,10.30
2023-04-12T06:54:39.252Z,10.31
2023-04-12T06:55:39.920Z,10.31
2023-04-12T06:56:39.495Z,10.31
2023-04-12T06:57:39.290Z,10.31
2023-04-12T06:58:38.886Z,10.31
2023-04-12T06:59:39.816Z,10.31
2023-04-12T07:00:41.028Z,10.31
2023-04-12T07:01:41.294Z,10.31
2023-04-12T07:02:39.547Z,10.31
2023-04-12T07:03:39.393Z,10.31
2023-04-12T07:04:39.326Z,10.31
2023-04-12T07:05:39.432Z,10.31
2023-04-12T07:06:39.303Z,10.31
2023-04-12T07:07:38.876Z,10.31
2023-04-12T07:08:39.236Z,10.31
2023-04-12T07:09:39.358Z,10.31
2023-04-12T07:10:39.036Z,10.31
2023-04-12T07:11:39.290Z,10.31
2023-04-12T07:12:39.190Z,10.31
2023-04-12T07:13:38.664Z,10.31
2023-04-12T07:14:39.197Z,10.31
2023-04-12T07:15:39.838Z,10.31
2023-04-12T07:16:39.181Z,10.31
2023-04-12T07:17:38.962Z,10.31
2023-04-12T07:18:39.738Z,10.31
2023-04-12T07:19:38.846Z,10.31
2023-04-12T07:20:39.435Z,10.31
2023-04-12T07:21:38.868Z,10.31
2023-04-12T07:22:39.149Z,10.31
2023-04-12T07:23:38.741Z,10.31
2023-04-12T07:24:39.513Z,10.31
2023-04-12T07:25:39.111Z,10.31
2023-04-12T07:26:39.322Z,10.31
2023-04-12T07:27:38.917Z,10.31
2023-04-12T07:28:39.416Z,10.31
2023-04-12T07:29:38.869Z,10.31
2023-04-12T07:30:39.923Z,10.31
2023-04-12T07:31:39.644Z,10.31
2023-04-12T07:32:39.349Z,10.31
2023-04-12T07:33:41.341Z,10.31
2023-04-12T07:34:40.037Z,10.31
2023-04-12T07:35:38.765Z,10.31
2023-04-12T07:36:38.869Z,10.31
2023-04-12T07:37:39.760Z,10.32
2023-04-12T07:38:38.882Z,10.31
2023-04-12T07:39:39.052Z,10.32
2023-04-12T07:40:38.776Z,10.32
2023-04-12T07:41:38.577Z,10.32
2023-04-12T07:42:38.945Z,10.35
2023-04-12T07:43:39.444Z,10.36
2023-04-12T07:44:39.475Z,10.34
2023-04-12T07:45:39.181Z,10.37
2023-04-12T07:46:39.436Z,10.37
2023-04-12T07:47:39.553Z,10.37
2023-04-12T07:48:39.819Z,10.37
2023-04-12T07:49:39.398Z,10.37
2023-04-12T07:50:39.235Z,10.37
2023-04-12T07:51:38.815Z,10.37
2023-04-12T07:52:39.141Z,10.37
2023-04-12T07:53:38.787Z,10.37
2023-04-12T07:54:39.416Z,10.37
2023-04-12T07:55:39.534Z,10.37
2023-04-12T07:56:39.189Z,10.37
2023-04-12T07:57:38.762Z,10.37
2023-04-12T07:58:39.412Z,10.37
2023-04-12T07:59:39.000Z,10.37
2023-04-12T08:00:39.696Z,10.37
2023-04-12T08:01:39.640Z,10.37
2023-04-12T08:02:39.436Z,10.37
2023-04-12T08:03:39.185Z,10.37
2023-04-12T08:04:38.974Z,10.37
2023-04-12T08:05:39.173Z,10.37
2023-04-12T08:06:38.907Z,10.37
2023-04-12T08:07:39.331Z,10.37
2023-04-12T08:08:39.099Z,10.37
2023-04-12T08:09:38.915Z,10.37
2023-04-12T08:10:39.793Z,10.37
2023-04-12T08:11:39.268Z,10.37
2023-04-12T08:12:38.935Z,10.37
2023-04-12T08:13:39.363Z,10.37
2023-04-12T08:14:40.792Z,10.37
2023-04-12T08:15:38.608Z,10.37
2023-04-12T08:16:39.558Z,10.37
2023-04-12T08:17:39.635Z,10.37
2023-04-12T08:18:39.714Z,10.38
2023-04-12T08:19:39.242Z,10.37
2023-04-12T08:20:39.228Z,10.39
2023-04-12T08:21:39.072Z,10.37
2023-04-12T08:22:38.462Z,10.37
2023-04-12T08:23:39.144Z,10.39
2023-04-12T08:24:39.203Z,10.39
2023-04-12T08:25:39.400Z,10.40
2023-04-12T08:26:39.147Z,10.42
2023-04-12T08:27:39.532Z,10.42
2023-04-12T08:28:39.790Z,10.42
2023-04-12T08:29:38.705Z,10.41
2023-04-12T08:30:39.488Z,10.42
2023-04-12T08:31:38.693Z,10.41
2023-04-12T08:32:38.668Z,10.43
2023-04-12T08:33:39.049Z,10.43
2023-04-12T08:34:38.726Z,10.42
2023-04-12T08:35:39.423Z,10.43
2023-04-12T08:36:38.456Z,10.43
2023-04-12T08:37:38.462Z,10.43
2023-04-12T08:39:00.204Z,10.43
2023-04-12T08:39:38.449Z,10.43
2023-04-12T08:40:39.179Z,10.43
2023-04-12T08:41:39.245Z,10.43
2023-04-12T08:42:39.036Z,10.43
2023-04-12T08:43:38.813Z,10.43
2023-04-12T08:44:39.360Z,10.43
2023-04-12T08:45:38.978Z,10.43
2023-04-12T08:46:47.577Z,10.43
2023-04-12T08:47:38.876Z,10.43
2023-04-12T08:48:39.433Z,10.43
2023-04-12T08:49:38.747Z,10.43
2023-04-12T08:50:39.484Z,10.43
2023-04-12T08:51:39.817Z,10.43
2023-04-12T08:52:39.781Z,10.43
2023-04-12T08:53:39.901Z,10.43
2023-04-12T08:54:39.572Z,10.43
2023-04-12T08:55:39.330Z,10.43
2023-04-12T08:56:38.756Z,10.43
2023-04-12T08:57:39.367Z,10.43
2023-04-12T08:58:38.930Z,10.43
2023-04-12T08:59:39.420Z,10.43
2023-04-12T09:00:39.764Z,10.43
2023-04-12T09:01:38.816Z,10.43
2023-04-12T09:02:39.596Z,10.43
2023-04-12T09:03:39.973Z,10.43
2023-04-12T09:04:38.774Z,10.43
2023-04-12T09:05:39.516Z,10.43
2023-04-12T09:06:38.998Z,10.43
2023-04-12T09:07:38.022Z,10.43
2023-04-12T09:08:38.718Z,10.43
2023-04-12T09:09:38.494Z,10.43
2023-04-12T09:10:39.057Z,10.43
2023-04-12T09:11:38.442Z,10.44
2023-04-12T09:12:38.601Z,10.45
2023-04-12T09:13:38.647Z,10.47
2023-04-12T09:14:38.781Z,10.48
2023-04-12T09:15:39.660Z,10.5
2023-04-12T09:16:38.766Z,10.47
2023-04-12T09:17:39.189Z,10.5
2023-04-12T09:18:38.502Z,10.5
2023-04-12T09:19:38.630Z,10.5
2023-04-12T09:20:39.636Z,10.5
2023-04-12T09:21:39.246Z,10.5
2023-04-12T09:22:38.570Z,10.5
2023-04-12T09:23:39.274Z,10.5
2023-04-12T09:24:38.664Z,10.5
2023-04-12T09:25:39.121Z,10.5
2023-04-12T09:26:38.169Z,10.5
2023-04-12T09:27:38.585Z,10.5
2023-04-12T09:28:39.344Z,10.5
2023-04-12T09:29:39.259Z,10.5
2023-04-12T09:30:39.690Z,10.5
2023-04-12T09:31:39.288Z,10.5
2023-04-12T09:32:38.742Z,10.5
2023-04-12T09:33:39.106Z,10.5
2023-04-12T09:34:40.963Z,10.5
2023-04-12T09:35:39.915Z,10.5
2023-04-12T09:36:39.091Z,10.5
2023-04-12T09:37:38.799Z,10.5
2023-04-12T09:38:39.162Z,10.5
2023-04-12T09:39:40.632Z,10.5
2023-04-12T09:40:39.610Z,10.5
2023-04-12T09:41:41.959Z,10.5
2023-04-12T09:42:49.612Z,10.5
2023-04-12T09:43:39.231Z,10.5
2023-04-12T09:44:39.443Z,10.5
2023-04-12T09:45:39.744Z,10.5
2023-04-12T09:46:39.665Z,10.5
2023-04-12T09:47:39.395Z,10.51
2023-04-12T09:48:39.523Z,10.5
2023-04-12T09:49:39.756Z,10.5
2023-04-12T09:50:39.836Z,10.52
2023-04-12T09:51:39.436Z,10.51
2023-04-12T09:52:39.231Z,10.5
2023-04-12T09:53:39.058Z,10.5
2023-04-12T09:54:39.272Z,10.5
2023-04-12T09:55:38.922Z,10.51
2023-04-12T09:56:39.500Z,10.51
2023-04-12T09:57:38.826Z,10.53
2023-04-12T09:58:39.323Z,10.55
2023-04-12T09:59:39.111Z,10.52
2023-04-12T10:00:40.841Z,10.53
2023-04-12T10:01:39.877Z,10.56
2023-04-12T10:02:40.166Z,10.55
2023-04-12T10:03:39.928Z,10.56
2023-04-12T10:04:40.248Z,10.55
2023-04-12T10:05:40.328Z,10.56
2023-04-12T10:06:38.813Z,10.56
2023-04-12T10:07:40.917Z,10.56
2023-04-12T10:08:39.249Z,10.56
2023-04-12T10:09:38.929Z,10.56
2023-04-12T10:10:39.735Z,10.56
2023-04-12T10:11:42.761Z,10.56
2023-04-12T10:12:38.800Z,10.56
2023-04-12T10:13:38.981Z,10.56
2023-04-12T10:14:38.704Z,10.56
2023-04-12T10:15:40.271Z,10.56
2023-04-12T10:16:39.937Z,10.56
2023-04-12T10:17:39.713Z,10.56
2023-04-12T10:18:39.898Z,10.56
2023-04-12T10:19:38.910Z,10.56
2023-04-12T10:20:44.201Z,10.56
2023-04-12T10:21:43.451Z,10.56
2023-04-12T10:22:39.161Z,10.56
2023-04-12T10:23:39.062Z,10.56
2023-04-12T10:24:38.957Z,10.56
2023-04-12T10:25:39.663Z,10.56
2023-04-12T10:26:39.121Z,10.56
2023-04-12T10:27:38.818Z,10.56
2023-04-12T10:28:39.406Z,10.56
2023-04-12T10:29:39.087Z,10.56
2023-04-12T10:30:39.035Z,10.57
2023-04-12T10:31:47.097Z,10.58
2023-04-12T10:32:39.038Z,10.57
2023-04-12T10:33:38.878Z,10.61
2023-04-12T10:34:39.634Z,10.58
2023-04-12T10:35:47.467Z,10.60
2023-04-12T10:36:39.281Z,10.62
2023-04-12T10:37:38.991Z,10.57
2023-04-12T10:38:38.990Z,10.60
2023-04-12T10:39:39.036Z,10.62
2023-04-12T10:40:39.014Z,10.62
2023-04-12T10:41:53.333Z,10.61
2023-04-12T10:42:39.414Z,8.800
2023-04-12T10:43:53.749Z,10.62
2023-04-12T10:44:39.596Z,10.62
2023-04-12T10:45:39.811Z,10.62
2023-04-12T10:46:40.265Z,10.62
2023-04-12T10:47:40.154Z,10.62
2023-04-12T10:48:39.593Z,10.62
2023-04-12T10:49:39.713Z,10.62
2023-04-12T10:50:40.229Z,10.62
2023-04-12T10:51:38.869Z,10.62
2023-04-12T10:52:40.098Z,10.62
2023-04-12T10:53:39.594Z,10.62
2023-04-12T10:54:39.791Z,10.62
2023-04-12T10:55:39.625Z,10.62
2023-04-12T10:56:39.515Z,10.62
2023-04-12T10:57:39.593Z,10.62
2023-04-12T10:58:40.210Z,10.62
2023-04-12T10:59:53.015Z,10.62
2023-04-12T11:00:40.405Z,10.62
2023-04-12T11:01:59.261Z,10.62
2023-04-12T11:02:40.069Z,10.62
2023-04-12T11:03:40.126Z,10.62
2023-04-12T11:04:40.332Z,10.62
2023-04-12T11:05:45.076Z,10.62
2023-04-12T11:06:43.653Z,10.62
2023-04-12T11:07:39.723Z,10.62
2023-04-12T11:08:40.240Z,10.62
2023-04-12T11:09:47.576Z,10.62
2023-04-12T11:10:39.890Z,10.62
2023-04-12T11:11:48.147Z,10.62
2023-04-12T11:12:39.488Z,10.62
2023-04-12T11:13:47.630Z,10.62
2023-04-12T11:14:39.792Z,10.62
2023-04-12T11:15:40.102Z,10.62
2023-04-12T11:16:39.544Z,10.62
2023-04-12T11:17:40.231Z,10.62
2023-04-12T11:18:39.777Z,10.62
2023-04-12T11:19:40.535Z,10.62
2023-04-12T11:20:39.386Z,10.62
2023-04-12T11:21:39.756Z,10.62
2023-04-12T11:22:39.977Z,10.62
2023-04-12T11:23:52.747Z,10.62
2023-04-12T11:24:39.941Z,10.62
2023-04-12T11:25:40.099Z,10.62
2023-04-12T11:26:39.692Z,10.62
2023-04-12T11:27:39.428Z,10.62
2023-04-12T11:28:45.928Z,10.62
2023-04-12T11:29:39.956Z,10.62
2023-04-12T11:30:41.596Z,10.62
2023-04-12T11:32:11.522Z,10.62
2023-04-12T11:32:44.352Z,10.62
2023-04-12T11:33:39.243Z,10.62
2023-04-12T11:34:39.549Z,10.62
2023-04-12T11:35:39.848Z,10.62
2023-04-12T11:36:39.667Z,10.62
2023-04-12T11:37:39.444Z,10.62
2023-04-12T11:38:39.455Z,10.62
2023-04-12T11:39:39.540Z,10.62
2023-04-12T11:40:39.557Z,10.62
2023-04-12T11:41:58.780Z,10.62
2023-04-12T11:42:39.754Z,10.62
2023-04-12T11:43:39.843Z,10.62
2023-04-12T11:44:55.299Z,10.62
2023-04-12T11:46:02.488Z,10.62
2023-04-12T11:46:40.548Z,10.62
2023-04-12T11:47:39.605Z,10.62
2023-04-12T11:48:39.741Z,10.62
2023-04-12T11:49:39.933Z,10.62
2023-04-12T11:50:40.249Z,10.62
2023-04-12T11:51:38.663Z,10.62
2023-04-12T11:52:40.074Z,10.62
2023-04-12T11:53:40.227Z,10.62
2023-04-12T11:54:39.992Z,10.62
2023-04-12T11:55:40.395Z,10.62
2023-04-12T11:56:39.653Z,10.62
2023-04-12T11:57:40.247Z,10.62
2023-04-12T11:58:39.675Z,10.62
2023-04-12T11:59:39.769Z,10.63
2023-04-12T12:00:41.842Z,10.62
2023-04-12T12:01:40.101Z,10.62
2023-04-12T12:02:49.426Z,10.62
2023-04-12T12:03:41.104Z,10.62
2023-04-12T12:04:41.341Z,10.62
2023-04-12T12:05:42.077Z,10.63
2023-04-12T12:06:43.017Z,10.63
2023-04-12T12:07:40.338Z,10.62
2023-04-12T12:08:39.607Z,10.62
2023-04-12T12:11:07.405Z,10.62
2023-04-12T12:11:40.166Z,10.62
2023-04-12T12:12:39.159Z,10.62
2023-04-12T12:13:41.054Z,10.62
2023-04-12T12:14:39.010Z,10.62
2023-04-12T12:15:39.182Z,10.62
2023-04-12T12:16:39.650Z,10.63
2023-04-12T12:17:39.592Z,10.66
2023-04-12T12:18:39.759Z,10.68
2023-04-12T12:20:39.864Z,10.64
2023-04-12T12:21:40.483Z,10.64
2023-04-12T12:22:39.668Z,10.63
2023-04-12T12:23:39.149Z,10.63
2023-04-12T12:24:42.195Z,10.65
2023-04-12T12:25:39.839Z,10.63
2023-04-12T12:26:40.087Z,10.65
2023-04-12T12:27:39.465Z,10.64
2023-04-12T12:28:39.727Z,10.65
2023-04-12T12:29:39.629Z,10.65
2023-04-12T12:30:40.314Z,10.67
2023-04-12T12:31:40.231Z,10.68
2023-04-12T12:32:39.442Z,10.68
2023-04-12T12:33:58.040Z,10.67
2023-04-12T12:34:39.762Z,10.68
2023-04-12T12:35:40.220Z,10.68
2023-04-12T12:36:39.593Z,10.68
2023-04-12T12:37:39.409Z,10.68
2023-04-12T12:38:47.364Z,10.66
2023-04-12T12:39:38.667Z,10.67
2023-04-12T12:40:39.868Z,10.67
2023-04-12T12:41:39.805Z,10.68
2023-04-12T12:42:39.700Z,10.68
2023-04-12T12:43:39.270Z,10.68
2023-04-12T12:44:38.931Z,10.68
2023-04-12T12:45:40.170Z,10.68
2023-04-12T12:47:39.415Z,10.68
2023-04-12T12:48:39.678Z,10.67
2023-04-12T12:49:40.089Z,10.68
2023-04-12T12:50:40.341Z,10.68
2023-04-12T12:51:39.736Z,10.68
2023-04-12T12:52:42.181Z,10.68
2023-04-12T12:53:39.814Z,10.68
2023-04-12T12:54:55.365Z,10.68
2023-04-12T12:55:40.804Z,10.68
2023-04-12T12:56:39.681Z,10.68
2023-04-12T12:57:39.509Z,10.68
2023-04-12T12:58:46.916Z,10.68
2023-04-12T12:59:41.685Z,10.68